sensor_id;sensor_type;location;lat;lon;timestamp;P1;durP1;ratioP1;P2;durP2;ratioP2
77146;SDS011;66121;52.584;9.694;2022-12-24T00:01:07;7.22;;;4.35;;
77146;SDS011;66121;52.584;9.694;2022-12-24T00:03:34;6.82;;;3.90;;
77146;SDS011;66121;52.584;9.694;2022-12-24T00:06:07;6.93;;;4.15;;
77146;SDS011;66121;52.584;9.694;2022-12-24T00:08:37;8.32;;;4.03;;
77146;SDS011;66121;52.584;9.694;2022-12-24T00:11:02;5.15;;;3.38;;
77146;SDS011;66121;52.584;9.694;2022-12-24T00:13:28;6.40;;;3.85;;
77146;SDS011;66121;52.584;9.694;2022-12-24T00:15:53;6.27;;;3.53;;
77146;SDS011;66121;52.584;9.694;2022-12-24T00:18:18;7.23;;;4.40;;
77146;SDS011;66121;52.584;9.694;2022-12-24T00:20:45;10.50;;;6.13;;
77146;SDS011;66121;52.584;9.694;2022-12-24T00:23:12;8.90;;;5.10;;
77146;SDS011;66121;52.584;9.694;2022-12-24T00:25:37;9.35;;;4.85;;
77146;SDS011;66121;52.584;9.694;2022-12-24T00:28:03;6.17;;;4.20;;
77146;SDS011;66121;52.584;9.694;2022-12-24T00:30:28;6.35;;;3.80;;
77146;SDS011;66121;52.584;9.694;2022-12-24T00:32:53;6.37;;;4.00;;
77146;SDS011;66121;52.584;9.694;2022-12-24T00:35:19;10.00;;;4.00;;
77146;SDS011;66121;52.584;9.694;2022-12-24T00:37:46;7.17;;;4.03;;
77146;SDS011;66121;52.584;9.694;2022-12-24T00:40:12;9.93;;;4.53;;
77146;SDS011;66121;52.584;9.694;2022-12-24T00:42:37;8.07;;;4.30;;
77146;SDS011;66121;52.584;9.694;2022-12-24T00:45:03;8.20;;;5.33;;
77146;SDS011;66121;52.584;9.694;2022-12-24T00:47:28;7.38;;;4.47;;
77146;SDS011;66121;52.584;9.694;2022-12-24T00:49:54;7.67;;;4.77;;
77146;SDS011;66121;52.584;9.694;2022-12-24T00:52:19;7.37;;;4.37;;
77146;SDS011;66121;52.584;9.694;2022-12-24T00:54:44;10.10;;;4.90;;
77146;SDS011;66121;52.584;9.694;2022-12-24T00:57:09;7.40;;;4.40;;
77146;SDS011;66121;52.584;9.694;2022-12-24T00:59:35;10.03;;;3.97;;
77146;SDS011;66121;52.584;9.694;2022-12-24T01:02:00;8.87;;;5.60;;
77146;SDS011;66121;52.584;9.694;2022-12-24T01:04:25;9.03;;;4.73;;
77146;SDS011;66121;52.584;9.694;2022-12-24T01:07:09;11.20;;;4.97;;
77146;SDS011;66121;52.584;9.694;2022-12-24T01:09:34;7.70;;;4.55;;
77146;SDS011;66121;52.584;9.694;2022-12-24T01:12:00;7.13;;;4.45;;
77146;SDS011;66121;52.584;9.694;2022-12-24T01:14:25;9.07;;;5.10;;
77146;SDS011;66121;52.584;9.694;2022-12-24T01:16:50;9.40;;;4.47;;
77146;SDS011;66121;52.584;9.694;2022-12-24T01:19:16;5.90;;;3.58;;
77146;SDS011;66121;52.584;9.694;2022-12-24T01:21:41;6.00;;;3.70;;
77146;SDS011;66121;52.584;9.694;2022-12-24T01:24:08;7.87;;;6.03;;
77146;SDS011;66121;52.584;9.694;2022-12-24T01:26:37;11.30;;;7.82;;
77146;SDS011;66121;52.584;9.694;2022-12-24T01:29:03;6.53;;;4.50;;
77146;SDS011;66121;52.584;9.694;2022-12-24T01:31:28;6.53;;;3.97;;
77146;SDS011;66121;52.584;9.694;2022-12-24T01:33:53;8.80;;;5.17;;
77146;SDS011;66121;52.584;9.694;2022-12-24T01:36:19;8.67;;;4.83;;
77146;SDS011;66121;52.584;9.694;2022-12-24T01:38:44;5.90;;;3.50;;
77146;SDS011;66121;52.584;9.694;2022-12-24T01:41:13;5.97;;;3.50;;
77146;SDS011;66121;52.584;9.694;2022-12-24T01:46:49;6.40;;;4.30;;
77146;SDS011;66121;52.584;9.694;2022-12-24T01:49:17;5.60;;;3.75;;
77146;SDS011;66121;52.584;9.694;2022-12-24T01:51:45;6.13;;;4.05;;
77146;SDS011;66121;52.584;9.694;2022-12-24T01:54:15;6.38;;;3.97;;
77146;SDS011;66121;52.584;9.694;2022-12-24T01:56:43;7.57;;;4.30;;
77146;SDS011;66121;52.584;9.694;2022-12-24T01:59:11;7.25;;;4.05;;
77146;SDS011;66121;52.584;9.694;2022-12-24T02:01:38;6.63;;;4.30;;
77146;SDS011;66121;52.584;9.694;2022-12-24T02:04:08;6.85;;;4.20;;
77146;SDS011;66121;52.584;9.694;2022-12-24T02:06:55;6.05;;;3.83;;
77146;SDS011;66121;52.584;9.694;2022-12-24T02:09:21;6.28;;;3.70;;
77146;SDS011;66121;52.584;9.694;2022-12-24T02:11:46;5.40;;;3.30;;
77146;SDS011;66121;52.584;9.694;2022-12-24T02:14:12;5.20;;;3.38;;
77146;SDS011;66121;52.584;9.694;2022-12-24T02:16:53;5.82;;;3.22;;
77146;SDS011;66121;52.584;9.694;2022-12-24T02:19:49;5.45;;;3.60;;
77146;SDS011;66121;52.584;9.694;2022-12-24T02:22:28;5.93;;;2.83;;
77146;SDS011;66121;52.584;9.694;2022-12-24T02:25:09;6.03;;;3.50;;
77146;SDS011;66121;52.584;9.694;2022-12-24T02:27:41;4.95;;;3.42;;
77146;SDS011;66121;52.584;9.694;2022-12-24T02:30:32;6.40;;;3.65;;
77146;SDS011;66121;52.584;9.694;2022-12-24T02:33:19;4.57;;;3.10;;
77146;SDS011;66121;52.584;9.694;2022-12-24T02:38:59;4.72;;;2.88;;
77146;SDS011;66121;52.584;9.694;2022-12-24T02:41:32;3.97;;;2.90;;
77146;SDS011;66121;52.584;9.694;2022-12-24T02:44:20;5.90;;;3.90;;
77146;SDS011;66121;52.584;9.694;2022-12-24T02:46:48;5.13;;;3.13;;
77146;SDS011;66121;52.584;9.694;2022-12-24T02:49:14;4.38;;;2.90;;
77146;SDS011;66121;52.584;9.694;2022-12-24T02:51:40;5.15;;;3.38;;
77146;SDS011;66121;52.584;9.694;2022-12-24T02:54:05;6.68;;;3.58;;
77146;SDS011;66121;52.584;9.694;2022-12-24T03:02:16;7.20;;;4.20;;
77146;SDS011;66121;52.584;9.694;2022-12-24T03:07:37;5.82;;;3.33;;
77146;SDS011;66121;52.584;9.694;2022-12-24T03:12:52;5.90;;;3.22;;
77146;SDS011;66121;52.584;9.694;2022-12-24T03:15:22;4.68;;;3.10;;
77146;SDS011;66121;52.584;9.694;2022-12-24T03:17:49;4.68;;;3.00;;
77146;SDS011;66121;52.584;9.694;2022-12-24T03:20:21;4.72;;;2.92;;
77146;SDS011;66121;52.584;9.694;2022-12-24T03:22:49;5.65;;;3.10;;
77146;SDS011;66121;52.584;9.694;2022-12-24T03:25:14;4.20;;;2.95;;
77146;SDS011;66121;52.584;9.694;2022-12-24T03:27:40;6.15;;;3.65;;
77146;SDS011;66121;52.584;9.694;2022-12-24T03:30:07;5.38;;;3.55;;
77146;SDS011;66121;52.584;9.694;2022-12-24T03:32:37;7.47;;;3.88;;
77146;SDS011;66121;52.584;9.694;2022-12-24T03:35:03;7.15;;;4.65;;
77146;SDS011;66121;52.584;9.694;2022-12-24T03:37:29;6.18;;;4.07;;
77146;SDS011;66121;52.584;9.694;2022-12-24T03:39:54;5.67;;;3.57;;
77146;SDS011;66121;52.584;9.694;2022-12-24T03:42:20;7.53;;;3.90;;
77146;SDS011;66121;52.584;9.694;2022-12-24T03:44:45;7.93;;;4.70;;
77146;SDS011;66121;52.584;9.694;2022-12-24T03:47:10;7.60;;;4.57;;
77146;SDS011;66121;52.584;9.694;2022-12-24T03:49:35;12.77;;;6.20;;
77146;SDS011;66121;52.584;9.694;2022-12-24T03:52:01;10.00;;;5.03;;
77146;SDS011;66121;52.584;9.694;2022-12-24T03:54:26;11.73;;;5.80;;
77146;SDS011;66121;52.584;9.694;2022-12-24T03:56:51;10.27;;;5.03;;
77146;SDS011;66121;52.584;9.694;2022-12-24T03:59:17;9.80;;;5.33;;
77146;SDS011;66121;52.584;9.694;2022-12-24T04:01:42;10.63;;;5.07;;
77146;SDS011;66121;52.584;9.694;2022-12-24T04:04:07;7.32;;;4.68;;
77146;SDS011;66121;52.584;9.694;2022-12-24T04:06:33;8.50;;;4.07;;
77146;SDS011;66121;52.584;9.694;2022-12-24T04:08:58;8.37;;;4.33;;
77146;SDS011;66121;52.584;9.694;2022-12-24T04:11:25;7.60;;;4.45;;
77146;SDS011;66121;52.584;9.694;2022-12-24T04:13:51;5.93;;;3.65;;
77146;SDS011;66121;52.584;9.694;2022-12-24T04:16:17;6.65;;;3.22;;
77146;SDS011;66121;52.584;9.694;2022-12-24T04:18:42;6.13;;;3.27;;
77146;SDS011;66121;52.584;9.694;2022-12-24T04:21:08;7.33;;;3.70;;
77146;SDS011;66121;52.584;9.694;2022-12-24T04:23:34;5.15;;;3.15;;
77146;SDS011;66121;52.584;9.694;2022-12-24T04:26:02;6.53;;;3.85;;
77146;SDS011;66121;52.584;9.694;2022-12-24T04:28:29;6.32;;;3.92;;
77146;SDS011;66121;52.584;9.694;2022-12-24T04:30:59;8.80;;;4.18;;
77146;SDS011;66121;52.584;9.694;2022-12-24T04:33:30;8.07;;;4.10;;
77146;SDS011;66121;52.584;9.694;2022-12-24T04:35:56;6.65;;;3.72;;
77146;SDS011;66121;52.584;9.694;2022-12-24T04:38:22;6.40;;;3.80;;
77146;SDS011;66121;52.584;9.694;2022-12-24T04:40:48;6.53;;;3.78;;
77146;SDS011;66121;52.584;9.694;2022-12-24T04:43:13;8.98;;;3.85;;
77146;SDS011;66121;52.584;9.694;2022-12-24T04:45:39;5.47;;;2.95;;
77146;SDS011;66121;52.584;9.694;2022-12-24T04:48:04;6.43;;;3.17;;
77146;SDS011;66121;52.584;9.694;2022-12-24T04:50:29;5.77;;;2.80;;
77146;SDS011;66121;52.584;9.694;2022-12-24T04:52:54;5.83;;;2.70;;
77146;SDS011;66121;52.584;9.694;2022-12-24T04:55:20;4.97;;;3.17;;
77146;SDS011;66121;52.584;9.694;2022-12-24T04:57:45;8.85;;;2.92;;
77146;SDS011;66121;52.584;9.694;2022-12-24T05:00:10;5.73;;;3.37;;
77146;SDS011;66121;52.584;9.694;2022-12-24T05:02:36;7.70;;;3.58;;
77146;SDS011;66121;52.584;9.694;2022-12-24T05:05:01;6.40;;;3.78;;
77146;SDS011;66121;52.584;9.694;2022-12-24T05:07:27;5.22;;;3.72;;
77146;SDS011;66121;52.584;9.694;2022-12-24T05:09:52;7.70;;;3.40;;
77146;SDS011;66121;52.584;9.694;2022-12-24T05:12:18;6.20;;;3.60;;
77146;SDS011;66121;52.584;9.694;2022-12-24T05:14:43;7.33;;;3.80;;
77146;SDS011;66121;52.584;9.694;2022-12-24T05:17:08;5.37;;;2.97;;
77146;SDS011;66121;52.584;9.694;2022-12-24T05:19:33;6.47;;;3.13;;
77146;SDS011;66121;52.584;9.694;2022-12-24T05:21:59;6.30;;;3.47;;
77146;SDS011;66121;52.584;9.694;2022-12-24T05:24:42;8.20;;;3.53;;
77146;SDS011;66121;52.584;9.694;2022-12-24T05:27:27;4.78;;;2.90;;
77146;SDS011;66121;52.584;9.694;2022-12-24T05:29:52;7.35;;;3.28;;
77146;SDS011;66121;52.584;9.694;2022-12-24T05:32:18;9.60;;;2.92;;
77146;SDS011;66121;52.584;9.694;2022-12-24T05:34:43;15.43;;;4.13;;
77146;SDS011;66121;52.584;9.694;2022-12-24T05:37:09;16.37;;;3.53;;
77146;SDS011;66121;52.584;9.694;2022-12-24T05:39:34;11.47;;;3.73;;
77146;SDS011;66121;52.584;9.694;2022-12-24T05:41:59;21.13;;;4.68;;
77146;SDS011;66121;52.584;9.694;2022-12-24T05:44:25;19.83;;;4.93;;
77146;SDS011;66121;52.584;9.694;2022-12-24T05:46:50;13.60;;;4.73;;
77146;SDS011;66121;52.584;9.694;2022-12-24T05:49:15;22.33;;;6.37;;
77146;SDS011;66121;52.584;9.694;2022-12-24T05:51:41;18.60;;;4.67;;
77146;SDS011;66121;52.584;9.694;2022-12-24T05:54:06;19.27;;;4.95;;
77146;SDS011;66121;52.584;9.694;2022-12-24T05:56:32;22.15;;;5.50;;
77146;SDS011;66121;52.584;9.694;2022-12-24T05:58:57;11.73;;;4.87;;
77146;SDS011;66121;52.584;9.694;2022-12-24T06:01:22;16.00;;;4.07;;
77146;SDS011;66121;52.584;9.694;2022-12-24T06:03:48;14.00;;;3.80;;
77146;SDS011;66121;52.584;9.694;2022-12-24T06:06:16;13.95;;;3.80;;
77146;SDS011;66121;52.584;9.694;2022-12-24T06:08:45;24.48;;;4.65;;
77146;SDS011;66121;52.584;9.694;2022-12-24T06:11:12;13.98;;;4.20;;
77146;SDS011;66121;52.584;9.694;2022-12-24T06:13:38;19.40;;;5.05;;
77146;SDS011;66121;52.584;9.694;2022-12-24T06:16:05;24.63;;;4.75;;
77146;SDS011;66121;52.584;9.694;2022-12-24T06:18:33;23.48;;;5.15;;
77146;SDS011;66121;52.584;9.694;2022-12-24T06:20:59;22.40;;;4.28;;
77146;SDS011;66121;52.584;9.694;2022-12-24T06:23:25;22.00;;;5.00;;
77146;SDS011;66121;52.584;9.694;2022-12-24T06:25:54;19.80;;;4.60;;
77146;SDS011;66121;52.584;9.694;2022-12-24T06:28:21;29.77;;;4.45;;
77146;SDS011;66121;52.584;9.694;2022-12-24T06:30:47;18.00;;;4.80;;
77146;SDS011;66121;52.584;9.694;2022-12-24T06:33:13;19.30;;;4.40;;
77146;SDS011;66121;52.584;9.694;2022-12-24T06:35:39;33.55;;;5.70;;
77146;SDS011;66121;52.584;9.694;2022-12-24T06:38:05;17.38;;;5.00;;
77146;SDS011;66121;52.584;9.694;2022-12-24T06:40:31;17.30;;;4.90;;
77146;SDS011;66121;52.584;9.694;2022-12-24T06:42:56;14.68;;;4.40;;
77146;SDS011;66121;52.584;9.694;2022-12-24T06:45:22;28.13;;;5.28;;
77146;SDS011;66121;52.584;9.694;2022-12-24T06:47:47;23.65;;;5.95;;
77146;SDS011;66121;52.584;9.694;2022-12-24T06:50:12;32.77;;;6.17;;
77146;SDS011;66121;52.584;9.694;2022-12-24T06:52:38;18.33;;;4.90;;
77146;SDS011;66121;52.584;9.694;2022-12-24T06:55:03;24.75;;;4.90;;
77146;SDS011;66121;52.584;9.694;2022-12-24T06:57:29;30.88;;;5.22;;
77146;SDS011;66121;52.584;9.694;2022-12-24T06:59:55;26.10;;;5.05;;
77146;SDS011;66121;52.584;9.694;2022-12-24T07:02:21;21.95;;;5.53;;
77146;SDS011;66121;52.584;9.694;2022-12-24T07:04:46;25.83;;;6.57;;
77146;SDS011;66121;52.584;9.694;2022-12-24T07:07:12;21.30;;;6.33;;
77146;SDS011;66121;52.584;9.694;2022-12-24T07:09:37;22.90;;;4.85;;
77146;SDS011;66121;52.584;9.694;2022-12-24T07:12:02;15.70;;;5.13;;
77146;SDS011;66121;52.584;9.694;2022-12-24T07:14:28;17.55;;;5.35;;
77146;SDS011;66121;52.584;9.694;2022-12-24T07:16:54;23.45;;;6.63;;
77146;SDS011;66121;52.584;9.694;2022-12-24T07:19:21;27.65;;;8.98;;
77146;SDS011;66121;52.584;9.694;2022-12-24T07:21:46;30.30;;;6.27;;
77146;SDS011;66121;52.584;9.694;2022-12-24T07:24:13;25.95;;;4.97;;
77146;SDS011;66121;52.584;9.694;2022-12-24T07:26:39;25.63;;;5.10;;
77146;SDS011;66121;52.584;9.694;2022-12-24T07:29:04;22.90;;;4.40;;
77146;SDS011;66121;52.584;9.694;2022-12-24T07:31:29;24.47;;;5.63;;
77146;SDS011;66121;52.584;9.694;2022-12-24T07:33:55;30.03;;;6.13;;
77146;SDS011;66121;52.584;9.694;2022-12-24T07:36:20;23.03;;;5.40;;
77146;SDS011;66121;52.584;9.694;2022-12-24T07:38:46;25.88;;;5.03;;
77146;SDS011;66121;52.584;9.694;2022-12-24T07:41:12;31.60;;;8.30;;
77146;SDS011;66121;52.584;9.694;2022-12-24T07:43:38;24.08;;;6.25;;
77146;SDS011;66121;52.584;9.694;2022-12-24T07:46:03;32.33;;;8.48;;
77146;SDS011;66121;52.584;9.694;2022-12-24T07:48:29;25.67;;;6.57;;
77146;SDS011;66121;52.584;9.694;2022-12-24T07:50:56;26.05;;;6.45;;
77146;SDS011;66121;52.584;9.694;2022-12-24T07:53:22;21.23;;;6.22;;
77146;SDS011;66121;52.584;9.694;2022-12-24T07:55:49;18.50;;;4.32;;
77146;SDS011;66121;52.584;9.694;2022-12-24T07:58:14;20.58;;;6.88;;
77146;SDS011;66121;52.584;9.694;2022-12-24T08:00:40;22.02;;;5.47;;
77146;SDS011;66121;52.584;9.694;2022-12-24T08:03:05;26.17;;;7.53;;
77146;SDS011;66121;52.584;9.694;2022-12-24T08:05:36;19.93;;;7.10;;
77146;SDS011;66121;52.584;9.694;2022-12-24T08:08:02;23.63;;;5.15;;
77146;SDS011;66121;52.584;9.694;2022-12-24T08:10:27;19.02;;;4.25;;
77146;SDS011;66121;52.584;9.694;2022-12-24T08:12:52;17.20;;;5.20;;
77146;SDS011;66121;52.584;9.694;2022-12-24T08:15:18;18.73;;;4.30;;
77146;SDS011;66121;52.584;9.694;2022-12-24T08:17:43;22.25;;;5.75;;
77146;SDS011;66121;52.584;9.694;2022-12-24T08:20:09;28.08;;;6.28;;
77146;SDS011;66121;52.584;9.694;2022-12-24T08:22:35;17.58;;;5.43;;
77146;SDS011;66121;52.584;9.694;2022-12-24T08:25:00;22.57;;;5.23;;
77146;SDS011;66121;52.584;9.694;2022-12-24T08:27:25;26.50;;;7.27;;
77146;SDS011;66121;52.584;9.694;2022-12-24T08:29:51;23.93;;;6.07;;
77146;SDS011;66121;52.584;9.694;2022-12-24T08:32:16;26.98;;;6.07;;
77146;SDS011;66121;52.584;9.694;2022-12-24T08:34:42;24.40;;;8.90;;
77146;SDS011;66121;52.584;9.694;2022-12-24T08:37:07;19.83;;;9.13;;
77146;SDS011;66121;52.584;9.694;2022-12-24T08:39:32;31.20;;;12.43;;
77146;SDS011;66121;52.584;9.694;2022-12-24T08:41:57;22.13;;;7.70;;
77146;SDS011;66121;52.584;9.694;2022-12-24T08:44:23;34.03;;;17.43;;
77146;SDS011;66121;52.584;9.694;2022-12-24T08:46:48;34.50;;;8.50;;
77146;SDS011;66121;52.584;9.694;2022-12-24T08:49:13;31.63;;;6.30;;
77146;SDS011;66121;52.584;9.694;2022-12-24T08:51:39;36.65;;;11.75;;
77146;SDS011;66121;52.584;9.694;2022-12-24T08:54:04;23.03;;;6.60;;
77146;SDS011;66121;52.584;9.694;2022-12-24T08:56:29;22.43;;;7.60;;
77146;SDS011;66121;52.584;9.694;2022-12-24T08:58:55;34.65;;;11.43;;
77146;SDS011;66121;52.584;9.694;2022-12-24T09:01:20;21.35;;;5.43;;
77146;SDS011;66121;52.584;9.694;2022-12-24T09:03:45;34.83;;;10.43;;
77146;SDS011;66121;52.584;9.694;2022-12-24T09:06:11;26.42;;;8.52;;
77146;SDS011;66121;52.584;9.694;2022-12-24T09:08:37;26.77;;;7.43;;
77146;SDS011;66121;52.584;9.694;2022-12-24T09:11:04;35.60;;;10.02;;
77146;SDS011;66121;52.584;9.694;2022-12-24T09:13:30;29.60;;;7.03;;
77146;SDS011;66121;52.584;9.694;2022-12-24T09:15:56;21.33;;;4.87;;
77146;SDS011;66121;52.584;9.694;2022-12-24T09:18:21;34.57;;;6.17;;
77146;SDS011;66121;52.584;9.694;2022-12-24T09:20:46;24.88;;;4.45;;
77146;SDS011;66121;52.584;9.694;2022-12-24T09:23:12;21.53;;;5.57;;
77146;SDS011;66121;52.584;9.694;2022-12-24T09:25:41;18.05;;;5.38;;
77146;SDS011;66121;52.584;9.694;2022-12-24T09:28:06;23.30;;;4.75;;
77146;SDS011;66121;52.584;9.694;2022-12-24T09:30:32;30.88;;;6.75;;
77146;SDS011;66121;52.584;9.694;2022-12-24T09:32:57;23.08;;;4.88;;
77146;SDS011;66121;52.584;9.694;2022-12-24T09:35:22;26.23;;;7.07;;
77146;SDS011;66121;52.584;9.694;2022-12-24T09:37:47;26.50;;;5.10;;
77146;SDS011;66121;52.584;9.694;2022-12-24T09:40:27;20.90;;;4.68;;
77146;SDS011;66121;52.584;9.694;2022-12-24T09:42:59;32.92;;;5.03;;
77146;SDS011;66121;52.584;9.694;2022-12-24T09:45:28;25.95;;;5.70;;
77146;SDS011;66121;52.584;9.694;2022-12-24T09:48:01;31.15;;;6.85;;
77146;SDS011;66121;52.584;9.694;2022-12-24T09:53:21;22.48;;;4.70;;
77146;SDS011;66121;52.584;9.694;2022-12-24T09:55:55;35.05;;;16.65;;
77146;SDS011;66121;52.584;9.694;2022-12-24T09:58:23;31.02;;;8.55;;
77146;SDS011;66121;52.584;9.694;2022-12-24T10:00:52;35.50;;;16.73;;
77146;SDS011;66121;52.584;9.694;2022-12-24T10:03:19;30.75;;;7.53;;
77146;SDS011;66121;52.584;9.694;2022-12-24T10:08:55;28.17;;;10.23;;
77146;SDS011;66121;52.584;9.694;2022-12-24T10:12:00;20.00;;;6.28;;
77146;SDS011;66121;52.584;9.694;2022-12-24T10:14:45;31.17;;;7.82;;
77146;SDS011;66121;52.584;9.694;2022-12-24T10:28:11;32.88;;;7.93;;
77146;SDS011;66121;52.584;9.694;2022-12-24T10:30:39;25.02;;;7.40;;
77146;SDS011;66121;52.584;9.694;2022-12-24T10:33:09;20.05;;;6.10;;
77146;SDS011;66121;52.584;9.694;2022-12-24T10:35:43;24.15;;;6.03;;
77146;SDS011;66121;52.584;9.694;2022-12-24T10:38:12;23.15;;;6.22;;
77146;SDS011;66121;52.584;9.694;2022-12-24T10:45:38;23.88;;;6.00;;
77146;SDS011;66121;52.584;9.694;2022-12-24T10:48:10;34.47;;;9.30;;
77146;SDS011;66121;52.584;9.694;2022-12-24T10:50:51;25.85;;;6.40;;
77146;SDS011;66121;52.584;9.694;2022-12-24T10:56:03;31.58;;;8.85;;
77146;SDS011;66121;52.584;9.694;2022-12-24T10:58:30;27.17;;;7.50;;
77146;SDS011;66121;52.584;9.694;2022-12-24T11:00:57;24.58;;;7.43;;
77146;SDS011;66121;52.584;9.694;2022-12-24T11:06:02;27.20;;;6.15;;
77146;SDS011;66121;52.584;9.694;2022-12-24T11:08:28;34.47;;;7.35;;
77146;SDS011;66121;52.584;9.694;2022-12-24T11:10:55;38.05;;;13.10;;
77146;SDS011;66121;52.584;9.694;2022-12-24T11:16:38;25.08;;;6.35;;
77146;SDS011;66121;52.584;9.694;2022-12-24T11:18:48;23.85;;;6.97;;
77146;SDS011;66121;52.584;9.694;2022-12-24T11:21:34;26.20;;;6.32;;
77146;SDS011;66121;52.584;9.694;2022-12-24T11:24:06;19.70;;;6.13;;
77146;SDS011;66121;52.584;9.694;2022-12-24T11:26:32;23.77;;;6.35;;
77146;SDS011;66121;52.584;9.694;2022-12-24T11:31:32;22.88;;;6.57;;
77146;SDS011;66121;52.584;9.694;2022-12-24T11:34:03;25.45;;;6.50;;
77146;SDS011;66121;52.584;9.694;2022-12-24T11:36:42;27.67;;;6.75;;
77146;SDS011;66121;52.584;9.694;2022-12-24T11:39:09;29.85;;;7.80;;
77146;SDS011;66121;52.584;9.694;2022-12-24T11:41:43;22.65;;;7.88;;
77146;SDS011;66121;52.584;9.694;2022-12-24T11:44:09;40.13;;;17.52;;
77146;SDS011;66121;52.584;9.694;2022-12-24T11:46:37;27.08;;;9.07;;
77146;SDS011;66121;52.584;9.694;2022-12-24T11:49:12;26.98;;;8.80;;
77146;SDS011;66121;52.584;9.694;2022-12-24T11:51:56;40.30;;;15.35;;
77146;SDS011;66121;52.584;9.694;2022-12-24T11:54:28;27.52;;;9.45;;
77146;SDS011;66121;52.584;9.694;2022-12-24T11:56:58;25.70;;;10.30;;
77146;SDS011;66121;52.584;9.694;2022-12-24T11:59:39;27.70;;;9.27;;
77146;SDS011;66121;52.584;9.694;2022-12-24T12:05:18;24.13;;;8.25;;
77146;SDS011;66121;52.584;9.694;2022-12-24T12:07:56;29.92;;;8.23;;
77146;SDS011;66121;52.584;9.694;2022-12-24T12:10:30;20.25;;;8.82;;
77146;SDS011;66121;52.584;9.694;2022-12-24T12:13:14;23.50;;;9.85;;
77146;SDS011;66121;52.584;9.694;2022-12-24T12:18:15;17.70;;;8.27;;
77146;SDS011;66121;52.584;9.694;2022-12-24T12:20:47;20.85;;;7.97;;
77146;SDS011;66121;52.584;9.694;2022-12-24T12:25:59;17.88;;;6.03;;
77146;SDS011;66121;52.584;9.694;2022-12-24T12:28:35;22.45;;;6.60;;
77146;SDS011;66121;52.584;9.694;2022-12-24T12:33:47;18.20;;;5.65;;
77146;SDS011;66121;52.584;9.694;2022-12-24T12:36:20;28.33;;;11.95;;
77146;SDS011;66121;52.584;9.694;2022-12-24T12:38:50;17.98;;;6.00;;
77146;SDS011;66121;52.584;9.694;2022-12-24T12:41:20;20.38;;;7.07;;
77146;SDS011;66121;52.584;9.694;2022-12-24T12:49:24;16.00;;;5.45;;
77146;SDS011;66121;52.584;9.694;2022-12-24T12:54:59;21.45;;;7.63;;
77146;SDS011;66121;52.584;9.694;2022-12-24T12:57:40;26.05;;;7.80;;
77146;SDS011;66121;52.584;9.694;2022-12-24T13:00:06;22.40;;;6.13;;
77146;SDS011;66121;52.584;9.694;2022-12-24T13:08:26;21.48;;;5.70;;
77146;SDS011;66121;52.584;9.694;2022-12-24T13:11:01;20.83;;;4.97;;
77146;SDS011;66121;52.584;9.694;2022-12-24T13:16:18;13.55;;;4.20;;
77146;SDS011;66121;52.584;9.694;2022-12-24T13:21:47;11.15;;;3.65;;
77146;SDS011;66121;52.584;9.694;2022-12-24T13:24:15;17.13;;;4.47;;
77146;SDS011;66121;52.584;9.694;2022-12-24T13:26:59;11.82;;;4.22;;
77146;SDS011;66121;52.584;9.694;2022-12-24T13:29:30;16.67;;;6.47;;
77146;SDS011;66121;52.584;9.694;2022-12-24T13:50:29;12.50;;;4.25;;
77146;SDS011;66121;52.584;9.694;2022-12-24T13:53:01;11.18;;;4.18;;
77146;SDS011;66121;52.584;9.694;2022-12-24T13:55:28;13.55;;;4.97;;
77146;SDS011;66121;52.584;9.694;2022-12-24T13:57:58;10.48;;;3.42;;
77146;SDS011;66121;52.584;9.694;2022-12-24T14:00:37;9.88;;;3.80;;
77146;SDS011;66121;52.584;9.694;2022-12-24T14:03:26;11.05;;;3.92;;
77146;SDS011;66121;52.584;9.694;2022-12-24T14:05:59;8.82;;;3.70;;
77146;SDS011;66121;52.584;9.694;2022-12-24T14:08:31;7.97;;;3.92;;
77146;SDS011;66121;52.584;9.694;2022-12-24T14:16:01;8.38;;;3.10;;
77146;SDS011;66121;52.584;9.694;2022-12-24T14:18:37;8.27;;;2.80;;
77146;SDS011;66121;52.584;9.694;2022-12-24T14:21:05;9.63;;;2.92;;
77146;SDS011;66121;52.584;9.694;2022-12-24T14:23:42;6.95;;;3.35;;
77146;SDS011;66121;52.584;9.694;2022-12-24T14:26:18;9.75;;;2.70;;
77146;SDS011;66121;52.584;9.694;2022-12-24T14:28:55;12.50;;;2.78;;
77146;SDS011;66121;52.584;9.694;2022-12-24T14:33:49;13.60;;;2.85;;
77146;SDS011;66121;52.584;9.694;2022-12-24T14:36:17;8.20;;;2.97;;
77146;SDS011;66121;52.584;9.694;2022-12-24T14:38:45;7.53;;;2.70;;
77146;SDS011;66121;52.584;9.694;2022-12-24T14:41:16;6.72;;;2.83;;
77146;SDS011;66121;52.584;9.694;2022-12-24T14:59:48;8.88;;;2.65;;
77146;SDS011;66121;52.584;9.694;2022-12-24T15:05:14;12.80;;;3.28;;
77146;SDS011;66121;52.584;9.694;2022-12-24T15:08:01;13.45;;;3.55;;
77146;SDS011;66121;52.584;9.694;2022-12-24T15:10:29;8.25;;;3.13;;
77146;SDS011;66121;52.584;9.694;2022-12-24T15:13:01;17.92;;;3.88;;
77146;SDS011;66121;52.584;9.694;2022-12-24T15:15:31;10.70;;;3.72;;
77146;SDS011;66121;52.584;9.694;2022-12-24T15:17:58;12.13;;;4.53;;
77146;SDS011;66121;52.584;9.694;2022-12-24T15:20:24;12.77;;;3.40;;
77146;SDS011;66121;52.584;9.694;2022-12-24T15:22:53;11.77;;;3.53;;
77146;SDS011;66121;52.584;9.694;2022-12-24T15:25:30;16.38;;;3.67;;
77146;SDS011;66121;52.584;9.694;2022-12-24T15:27:56;10.65;;;3.33;;
77146;SDS011;66121;52.584;9.694;2022-12-24T15:30:24;13.85;;;4.28;;
77146;SDS011;66121;52.584;9.694;2022-12-24T15:32:52;16.10;;;4.32;;
77146;SDS011;66121;52.584;9.694;2022-12-24T15:35:28;15.07;;;4.32;;
77146;SDS011;66121;52.584;9.694;2022-12-24T15:37:59;12.45;;;4.18;;
77146;SDS011;66121;52.584;9.694;2022-12-24T15:40:26;12.18;;;4.32;;
77146;SDS011;66121;52.584;9.694;2022-12-24T15:42:52;20.75;;;6.07;;
77146;SDS011;66121;52.584;9.694;2022-12-24T15:45:18;15.23;;;4.65;;
77146;SDS011;66121;52.584;9.694;2022-12-24T15:47:54;17.25;;;5.60;;
77146;SDS011;66121;52.584;9.694;2022-12-24T15:50:29;16.35;;;5.75;;
77146;SDS011;66121;52.584;9.694;2022-12-24T15:53:01;12.90;;;5.82;;
77146;SDS011;66121;52.584;9.694;2022-12-24T15:55:34;25.65;;;6.70;;
77146;SDS011;66121;52.584;9.694;2022-12-24T15:58:22;16.10;;;4.25;;
77146;SDS011;66121;52.584;9.694;2022-12-24T16:01:00;15.80;;;5.07;;
77146;SDS011;66121;52.584;9.694;2022-12-24T16:03:28;15.63;;;5.35;;
77146;SDS011;66121;52.584;9.694;2022-12-24T16:06:00;15.82;;;5.15;;
77146;SDS011;66121;52.584;9.694;2022-12-24T16:08:28;18.63;;;7.85;;
77146;SDS011;66121;52.584;9.694;2022-12-24T16:13:29;18.63;;;7.22;;
77146;SDS011;66121;52.584;9.694;2022-12-24T16:18:27;27.52;;;11.55;;
77146;SDS011;66121;52.584;9.694;2022-12-24T16:20:57;28.65;;;15.35;;
77146;SDS011;66121;52.584;9.694;2022-12-24T16:23:23;16.70;;;7.18;;
77146;SDS011;66121;52.584;9.694;2022-12-24T16:25:53;32.80;;;8.88;;
77146;SDS011;66121;52.584;9.694;2022-12-24T16:28:18;20.52;;;5.80;;
77146;SDS011;66121;52.584;9.694;2022-12-24T16:30:45;21.88;;;7.50;;
77146;SDS011;66121;52.584;9.694;2022-12-24T16:33:12;19.35;;;5.85;;
77146;SDS011;66121;52.584;9.694;2022-12-24T16:35:39;18.30;;;5.68;;
77146;SDS011;66121;52.584;9.694;2022-12-24T16:38:04;21.08;;;6.75;;
77146;SDS011;66121;52.584;9.694;2022-12-24T16:40:30;22.73;;;7.47;;
77146;SDS011;66121;52.584;9.694;2022-12-24T16:42:55;25.67;;;7.90;;
77146;SDS011;66121;52.584;9.694;2022-12-24T16:45:40;20.50;;;7.28;;
77146;SDS011;66121;52.584;9.694;2022-12-24T16:48:06;26.95;;;7.53;;
77146;SDS011;66121;52.584;9.694;2022-12-24T16:50:32;24.52;;;6.78;;
77146;SDS011;66121;52.584;9.694;2022-12-24T16:52:58;23.00;;;7.53;;
77146;SDS011;66121;52.584;9.694;2022-12-24T16:55:24;20.37;;;6.47;;
77146;SDS011;66121;52.584;9.694;2022-12-24T16:57:49;20.50;;;6.25;;